Dushan, China
Current Conditions -  °F | °C
As of 5:00 AM on Sunday 21 Dec 2014 (Local Time) from ZUGY Reporting Station
Overcast Overcast  
Wind Chill: 31°   Ceiling: 1600
Heat Index: 39°   Visibility: 6mi
Dew Point: 36°   Wind: 13mph
Humidity: 87%   Direction: 360°N
Pressure: 30.36"   Gusts: NA
Location:  25.83°N, 107.55°E
Report Text: ZUGY 202100Z 36006MPS 9999 BKN016 OVC033 04/02 Q1028 NOSIG
Loading
Personal Weather Stations






























Interactive Weather Map New forecast layout! Learn more

10-Day Weather Forecast

Advertisements
Track Severe Weather on mobile